Belen, NM (87002)

2:45 PM MST on March 02, 2015 (GMT -0700)
Belen | Change Station
CLOSE
Current Station
Airport
Location: Belen,
Elevation: 5194 ft
Nearby Weather Stations

Elev 5194 ft 34.65 °N, 106.83 °W | Updated 10 minutes ago

Partly Cloudy
Partly Cloudy
62 °F
Feels Like 62 °F
N
28
Wind Variable Wind from South
Gusts 39 mph

Today
High -- | Low -- °F
--% Chance of Precip.
Yesterday
High -- | Low -- °F
Precip. -- in
6:34 AM 6:03 PM
Waxing Gibbous, 93% visible
Pressure 29.86 in
Visibility 10.0 miles
Clouds Scattered Clouds 8000 ft
Dew Point 32 °F
Humidity 32%
Rainfall 0.00 in
Snow Depth Not available.
UV 4 out of 12
Pollen 6.60 out of 12
Air Quality Not available.
Flu Activity Not available.
METAR KE80 022135Z AUTO 18024G34KT 10SM SCT080 17/00 A2986 RMK AO2 T01651002

More Conditions Fewer Conditions

Pressure 29.86 in
Visibility 10.0 miles
Clouds Scattered Clouds 8000 ft
Dew Point 32 °F
Humidity 32%
Rainfall 0.00 in
Snow Depth Not available.
UV 4 out of 12
Pollen 6.60 out of 12
Air Quality Not available.
Flu Activity Not available.
METAR KE80 022135Z AUTO 18024G34KT 10SM SCT080 17/00 A2986 RMK AO2 T01651002

More Conditions Fewer Conditions

10-Day Weather Forecast

Almanac

Astronomy

Mar. 02, 2015 Rise Set
Actual Time
Civil Twilight
Nautical Twilight
Astronomical Twilight
Moon
Length of Visible Light
Length of Day
Tomorrow will be .
, % of the Moon is Illuminated

Today's Extremes

State Highs State Lows

Community

WunderPhotos

Upload Photos

1,801,965 photos uploaded!

WunderBlogs® & News

Nearby

Air Quality

  Air Quality AQ Index Pollutant
Not available.

Snow Depth

Station Depth Elevation

Earthquake Activity

City Distance Mag. Time & Date
Minimum magnitude displayed is 2.5.

Coastal Water Temperatures

Place Temperature

Nearby Weather Stations